Date,TemperatureHighF,TemperatureAvgF,TemperatureLowF,DewpointHighF,DewpointAvgF,DewpointLowF,HumidityHigh,HumidityAvg,HumidityLow,PressureMaxIn,PressureMinIn,WindSpeedMaxMPH,WindSpeedAvgMPH,GustSpeedMaxMPH,PrecipitationSumIn
2013-8-1,96.9,74.5,61.0,72.1,64.1,58.2,98,76,34,30.16,30.07,6,1,6,0.00
2013-8-2,105.1,81.8,65.4,75.0,66.3,61.1,98,65,31,30.07,29.98,9,2,9,0.00
2013-8-3,86.9,74.3,61.6,71.6,64.7,55.2,98,75,44,30.25,30.04,10,3,10,0.08
2013-8-4,90.8,70.8,55.1,65.7,58.9,53.5,98,72,34,30.25,30.19,4,1,4,0.00
2013-8-5,95.2,74.3,58.0,67.8,62.0,57.4,98,71,31,30.19,30.04,7,2,7,0.00
2013-8-6,84.7,71.0,61.1,66.9,62.2,59.1,98,76,44,30.16,30.04,11,3,11,0.00
2013-8-7,69.1,62.0,58.7,68.5,61.5,58.1,98,98,98,30.13,29.98,7,2,7,0.13
2013-8-8,74.6,63.6,57.5,65.3,59.6,56.9,98,88,60,30.22,30.07,6,2,6,0.00
2013-8-9,82.5,66.1,53.2,65.1,58.7,52.6,98,80,44,30.22,30.19,6,1,6,0.00
2013-8-10,77.4,64.6,59.8,65.2,58.1,48.6,98,81,53,30.25,30.19,9,3,9,0.00
2013-8-11,79.2,64.3,54.7,64.3,56.4,52.6,98,79,42,30.25,30.16,11,3,11,0.00
2013-8-12,73.8,64.5,54.4,66.6,58.3,53.8,98,82,56,30.16,30.10,18,2,18,0.00
2013-8-13,76.9,64.0,55.5,59.8,55.2,49.5,98,76,44,30.25,30.13,10,3,10,0.00
2013-8-14,81.2,60.3,46.6,62.2,54.3,46.1,98,83,42,30.28,30.25,8,1,8,0.00
2013-8-15,73.2,62.2,50.5,66.1,58.3,49.9,98,88,69,30.28,30.19,7,2,7,0.00
2013-8-16,92.8,72.0,55.1,65.4,58.3,54.5,98,69,31,30.19,30.10,9,2,9,0.00
2013-8-17,84.5,70.2,60.1,68.3,62.3,59.3,98,79,52,30.16,30.07,9,2,9,0.00
2013-8-18,70.5,67.9,62.8,69.6,64.8,61.2,98,90,77,30.07,30.04,12,3,12,0.25
2013-8-19,76.1,63.9,57.0,66.1,60.5,50.7,98,90,55,30.31,30.07,9,3,9,0.08
2013-8-20,76.8,61.2,48.4,62.5,54.9,47.9,98,82,48,30.37,30.31,4,1,4,0.00
2013-8-21,80.4,63.3,49.8,61.4,55.3,49.2,98,79,45,30.37,30.25,4,1,4,0.00
2013-8-22,83.5,64.6,50.7,65.3,57.3,50.1,98,81,40,30.25,30.19,6,1,6,0.00
2013-8-23,84.8,70.2,55.4,65.1,59.6,54.8,98,73,42,30.19,30.10,22,1,22,0.00
2013-8-24,72.3,64.8,59.6,66.8,61.4,57.2,98,89,66,30.10,30.01,8,2,8,0.12
2013-8-25,65.0,61.3,58.7,64.4,60.7,58.1,98,98,98,30.10,30.01,7,1,7,0.21
2013-8-26,74.1,61.9,51.6,64.3,57.5,51.0,98,87,56,30.13,30.10,10,2,10,0.00
2013-8-27,76.8,66.0,56.9,61.6,56.7,51.0,98,75,44,30.13,30.10,8,2,8,0.00
2013-8-28,80.2,63.3,51.9,62.6,56.6,51.4,98,82,47,30.22,30.13,5,1,5,0.00
2013-8-29,80.7,63.5,49.2,64.8,56.4,48.7,98,81,50,30.25,30.22,4,1,4,0.00
2013-8-30,82.2,64.3,49.7,64.2,56.5,49.1,98,79,45,30.25,30.19,7,1,7,0.00
2013-8-31,74.1,63.9,55.3,68.6,59.4,50.3,98,87,55,30.31,30.19,11,3,11,0.00